Lida, Belarus
Current Conditions -  °F | °C
As of 10:20 PM on Sunday 25 Jan 2015 (Local Time) from EYVI Reporting Station
Haze Haze  
Wind Chill: 24°   Ceiling: 2000
Heat Index: 30°   Visibility: 2.5mi
Dew Point: 28°   Wind: 6mph
Humidity: 93%   Direction: 180°S
Pressure: 30.09"   Gusts: NA
Location:  53.89°N, 25.28°E
Report Text: EYVI 252020Z 18005KT 4000 BR OVC020 M01/M02 Q1019 R20/2///95 NOSIG
Loading
Personal Weather Stations






























Interactive Weather Map New forecast layout! Learn more

10-Day Weather Forecast

Advertisements
Track Severe Weather on mobile